Time;durP1;ratioP1;P1;durP2;ratioP2;P2;SDS_P1;SDS_P2;PMS_P1;PMS_P2;Temp;Humidity;BMP_temperature;BMP_pressure;BME280_temperature;BME280_humidity;BME280_pressure;Samples;Min_cycle;Max_cycle;Signal;HPM_P1;HPM_P2
2023/11/25 00:00:26;;;;;;;;;;;;;;;;;;5084524;28;19913;-83
2023/11/25 00:02:52;;;;;;;;;;;;;;;;;;5078626;28;19908;-84
2023/11/25 00:05:19;;;;;;;;;;;;;;;;;;5075873;28;19912;-85
2023/11/25 00:07:45;;;;;;;;;;;;;;;;;;5067977;28;19972;-85
2023/11/25 00:10:12;;;;;;;;;;;;;;;;;;5074167;28;19912;-84
2023/11/25 00:12:38;;;;;;;;;;;;;;;;;;5074719;28;20011;-84
2023/11/25 00:15:04;;;;;;;;;;;;;;;;;;5079183;28;20083;-85
2023/11/25 00:17:31;;;;;;;;;;;;;;;;;;5078218;28;19909;-85
2023/11/25 00:19:57;;;;;;;;;;;;;;;;;;5077571;28;19958;-85
2023/11/25 00:22:23;;;;;;;;;;;;;;;;;;5078981;28;19919;-85
2023/11/25 00:24:49;;;;;;;;;;;;;;;;;;5058216;28;19954;-84
2023/11/25 00:27:15;;;;;;;;;;;;;;;;;;5074654;28;19943;-84
2023/11/25 00:29:40;;;;;;;;;;;;;;;;;;5081231;28;19951;-85
2023/11/25 00:32:07;;;;;;;;;;;;;;;;;;5079164;28;20027;-84
2023/11/25 00:34:33;;;;;;;;;;;;;;;;;;5084046;28;19913;-85
2023/11/25 00:36:59;;;;;;;;;;;;;;;;;;5077105;28;19915;-84
2023/11/25 00:39:27;;;;;;;;;;;;;;;;;;5081224;28;19987;-84
2023/11/25 00:41:53;;;;;;;;;;;;;;;;;;5079814;28;19999;-84
2023/11/25 00:44:19;;;;;;;;;;;;;;;;;;5081733;28;20050;-85
2023/11/25 00:46:44;;;;;;;;;;;;;;;;;;5082229;28;20004;-86
2023/11/25 00:49:12;;;;;;;;;;;;;;;;;;5080765;28;19988;-85
2023/11/25 00:51:38;;;;;;;;;;;;;;;;;;5092975;28;20483;-85
2023/11/25 00:54:04;;;;;;;;;;;;;;;;;;5082783;28;19963;-85
2023/11/25 00:56:30;;;;;;;;;;;;;;;;;;5078724;28;20352;-84
2023/11/25 00:58:56;;;;;;;;;;;;;;;;;;5081148;28;19912;-84
2023/11/25 01:01:22;;;;;;;;;;;;;;;;;;5086564;28;20260;-84
2023/11/25 01:03:48;;;;;;;;;;;;;;;;;;5072799;28;19958;-84
2023/11/25 01:06:14;;;;;;;;;;;;;;;;;;5087871;28;20019;-85
2023/11/25 01:08:40;;;;;;;;;;;;;;;;;;5090014;28;19954;-83
2023/11/25 01:11:06;;;;;;;;;;;;;;;;;;5084214;28;19935;-87
2023/11/25 01:13:32;;;;;;;;;;;;;;;;;;5078546;28;20360;-87
2023/11/25 01:16:00;;;;;;;;;;;;;;;;;;5087710;28;19912;-88
2023/11/25 01:18:26;;;;;;;;;;;;;;;;;;5086028;28;19908;-87
2023/11/25 01:20:55;;;;;;;;;;;;;;;;;;5065906;28;19924;-88
2023/11/25 01:23:21;;;;;;;;;;;;;;;;;;5088245;28;19962;-88
2023/11/25 01:25:48;;;;;;;;;;;;;;;;;;5085273;28;19915;-87
2023/11/25 01:28:14;;;;;;;;;;;;;;;;;;5082774;28;20363;-87
2023/11/25 01:30:40;;;;;;;;;;;;;;;;;;5063856;28;19950;-88
2023/11/25 01:33:09;;;;;;;;;;;;;;;;;;5078788;28;19955;-87
2023/11/25 01:35:35;;;;;;;;;;;;;;;;;;5082466;28;20401;-87
2023/11/25 01:38:01;;;;;;;;;;;;;;;;;;5066155;28;19983;-88
2023/11/25 01:40:27;;;;;;;;;;;;;;;;;;5082177;28;19905;-87
2023/11/25 01:42:53;;;;;;;;;;;;;;;;;;5086970;28;19979;-88
2023/11/25 01:45:19;;;;;;;;;;;;;;;;;;5070984;28;19951;-87
2023/11/25 01:47:45;;;;;;;;;;;;;;;;;;5087691;28;20030;-87
2023/11/25 01:50:11;;;;;;;;;;;;;;;;;;5082683;28;19961;-88
2023/11/25 01:52:37;;;;;;;;;;;;;;;;;;5081434;28;19916;-88
2023/11/25 01:55:03;;;;;;;;;;;;;;;;;;5080932;28;19915;-87
2023/11/25 01:57:29;;;;;;;;;;;;;;;;;;5081391;28;20018;-87
2023/11/25 01:59:55;;;;;;;;;;;;;;;;;;5085171;28;19991;-87
2023/11/25 02:02:21;;;;;;;;;;;;;;;;;;5078622;28;19991;-88
2023/11/25 02:04:47;;;;;;;;;;;;;;;;;;5082879;28;19915;-87
2023/11/25 02:07:13;;;;;;;;;;;;;;;;;;5088264;28;19948;-88
2023/11/25 02:09:39;;;;;;;;;;;;;;;;;;5077025;28;20339;-88
2023/11/25 02:12:07;;;;;;;;;;;;;;;;;;5082102;28;20481;-87
2023/11/25 02:14:33;;;;;;;;;;;;;;;;;;5083842;28;19919;-87
2023/11/25 02:16:59;;;;;;;;;;;;;;;;;;5089644;28;19959;-87
2023/11/25 02:19:25;;;;;;;;;;;;;;;;;;5080275;28;19916;-87
2023/11/25 02:21:52;;;;;;;;;;;;;;;;;;5078297;28;19908;-87
2023/11/25 02:24:17;;;;;;;;;;;;;;;;;;5085230;28;19988;-87
2023/11/25 02:26:44;;;;;;;;;;;;;;;;;;5086291;28;19988;-88
2023/11/25 02:29:09;;;;;;;;;;;;;;;;;;5086981;28;19920;-87
2023/11/25 02:31:38;;;;;;;;;;;;;;;;;;5062295;28;19916;-87
2023/11/25 02:34:06;;;;;;;;;;;;;;;;;;5057288;28;20000;-88
2023/11/25 02:36:32;;;;;;;;;;;;;;;;;;5084905;28;19907;-88
2023/11/25 02:38:58;;;;;;;;;;;;;;;;;;5062599;28;19944;-88
2023/11/25 02:41:24;;;;;;;;;;;;;;;;;;5083847;28;19958;-88
2023/11/25 02:43:51;;;;;;;;;;;;;;;;;;5087681;28;19916;-88
2023/11/25 02:46:18;;;;;;;;;;;;;;;;;;5080355;28;19923;-88
2023/11/25 02:48:44;;;;;;;;;;;;;;;;;;5074226;28;19954;-87
2023/11/25 02:51:10;;;;;;;;;;;;;;;;;;5080785;28;19963;-87
2023/11/25 02:53:36;;;;;;;;;;;;;;;;;;5080420;28;19924;-87
2023/11/25 02:56:02;;;;;;;;;;;;;;;;;;5079106;28;20037;-87
2023/11/25 02:58:28;;;;;;;;;;;;;;;;;;5088325;28;19946;-87
2023/11/25 03:01:01;;;;;;;;;;;;;;;;;;5081129;28;19971;-87
2023/11/25 03:03:27;;;;;;;;;;;;;;;;;;5085340;28;19908;-87
2023/11/25 03:05:53;;;;;;;;;;;;;;;;;;5078502;28;19923;-87
2023/11/25 03:08:21;;;;;;;;;;;;;;;;;;5082508;28;19916;-87
2023/11/25 03:10:47;;;;;;;;;;;;;;;;;;5086213;28;20319;-86
2023/11/25 03:13:13;;;;;;;;;;;;;;;;;;5082776;28;20018;-87
2023/11/25 03:15:39;;;;;;;;;;;;;;;;;;5081813;28;19911;-88
2023/11/25 03:18:05;;;;;;;;;;;;;;;;;;5080324;28;19940;-88
2023/11/25 03:20:31;;;;;;;;;;;;;;;;;;5076322;28;20423;-88
2023/11/25 03:22:57;;;;;;;;;;;;;;;;;;5077490;28;19920;-88
2023/11/25 03:25:25;;;;;;;;;;;;;;;;;;5055941;28;20695;-89
2023/11/25 03:27:51;;;;;;;;;;;;;;;;;;5089050;28;19999;-88
2023/11/25 03:30:17;;;;;;;;;;;;;;;;;;5081064;28;19934;-84
2023/11/25 03:32:43;;;;;;;;;;;;;;;;;;5072644;28;20223;-84
2023/11/25 03:35:09;;;;;;;;;;;;;;;;;;5073781;28;20296;-85
2023/11/25 03:37:35;;;;;;;;;;;;;;;;;;5062777;28;19951;-85
2023/11/25 03:40:01;;;;;;;;;;;;;;;;;;5083035;28;19959;-84
2023/11/25 03:42:27;;;;;;;;;;;;;;;;;;5069428;28;20030;-85
2023/11/25 03:44:53;;;;;;;;;;;;;;;;;;5077688;28;19938;-84
2023/11/25 03:47:19;;;;;;;;;;;;;;;;;;5077625;28;20374;-85
2023/11/25 03:49:45;;;;;;;;;;;;;;;;;;5078925;28;19947;-85
2023/11/25 03:52:11;;;;;;;;;;;;;;;;;;5077606;28;19963;-85
2023/11/25 03:54:37;;;;;;;;;;;;;;;;;;5081005;28;19971;-84
2023/11/25 03:57:02;;;;;;;;;;;;;;;;;;5080217;28;19959;-86
2023/11/25 03:59:28;;;;;;;;;;;;;;;;;;5078019;28;19975;-86
2023/11/25 04:01:55;;;;;;;;;;;;;;;;;;5082697;28;20590;-85
2023/11/25 04:04:21;;;;;;;;;;;;;;;;;;5087805;28;20267;-85
2023/11/25 04:06:47;;;;;;;;;;;;;;;;;;5086008;28;19951;-84
2023/11/25 04:09:13;;;;;;;;;;;;;;;;;;5072376;28;20109;-84
2023/11/25 04:11:39;;;;;;;;;;;;;;;;;;5079916;28;19908;-86
2023/11/25 04:14:05;;;;;;;;;;;;;;;;;;5081225;28;20373;-86
2023/11/25 04:16:31;;;;;;;;;;;;;;;;;;5085119;28;19970;-86
2023/11/25 04:18:57;;;;;;;;;;;;;;;;;;5079724;28;20013;-84
2023/11/25 04:21:23;;;;;;;;;;;;;;;;;;5080502;28;19966;-86
2023/11/25 04:23:49;;;;;;;;;;;;;;;;;;5070281;28;20302;-84
2023/11/25 04:26:15;;;;;;;;;;;;;;;;;;5077380;28;19999;-85
2023/11/25 04:28:41;;;;;;;;;;;;;;;;;;5077416;28;20348;-84
2023/11/25 04:31:07;;;;;;;;;;;;;;;;;;5081839;28;19912;-86
2023/11/25 04:33:34;;;;;;;;;;;;;;;;;;5083021;28;19969;-85
2023/11/25 04:36:01;;;;;;;;;;;;;;;;;;5087007;28;19916;-86
2023/11/25 04:38:27;;;;;;;;;;;;;;;;;;5091904;28;19962;-84
2023/11/25 04:40:54;;;;;;;;;;;;;;;;;;5083746;28;20333;-85
2023/11/25 04:43:20;;;;;;;;;;;;;;;;;;5081048;28;20411;-86
2023/11/25 04:45:46;;;;;;;;;;;;;;;;;;5080152;28;20019;-84
2023/11/25 04:48:12;;;;;;;;;;;;;;;;;;5058137;28;19966;-86
2023/11/25 04:50:39;;;;;;;;;;;;;;;;;;5085914;28;20352;-85
2023/11/25 04:53:05;;;;;;;;;;;;;;;;;;5084567;28;20282;-85
2023/11/25 04:55:31;;;;;;;;;;;;;;;;;;5081406;28;19908;-85
2023/11/25 04:57:57;;;;;;;;;;;;;;;;;;5086237;28;19951;-86
2023/11/25 05:00:23;;;;;;;;;;;;;;;;;;5083868;28;20113;-85
2023/11/25 05:02:49;;;;;;;;;;;;;;;;;;5079328;28;19909;-85
2023/11/25 05:05:15;;;;;;;;;;;;;;;;;;5079850;28;19954;-86
2023/11/25 05:07:41;;;;;;;;;;;;;;;;;;5089593;28;19951;-85
2023/11/25 05:10:09;;;;;;;;;;;;;;;;;;5090777;28;20022;-86
2023/11/25 05:12:36;;;;;;;;;;;;;;;;;;5089054;28;20362;-86
2023/11/25 05:15:03;;;;;;;;;;;;;;;;;;5077128;28;19912;-85
2023/11/25 05:17:29;;;;;;;;;;;;;;;;;;5086820;28;19912;-85
2023/11/25 05:19:55;;;;;;;;;;;;;;;;;;5091139;28;20289;-85
2023/11/25 05:22:21;;;;;;;;;;;;;;;;;;5059123;28;19955;-83
2023/11/25 05:24:47;;;;;;;;;;;;;;;;;;5079947;28;19912;-86
2023/11/25 05:27:13;;;;;;;;;;;;;;;;;;5078491;28;19900;-85
2023/11/25 05:29:39;;;;;;;;;;;;;;;;;;5095586;28;19918;-86
2023/11/25 05:32:07;;;;;;;;;;;;;;;;;;5104883;27;20425;-85
2023/11/25 05:34:34;;;;;;;;;;;;;;;;;;5080953;28;20258;-84
2023/11/25 05:37:00;;;;;;;;;;;;;;;;;;5089751;28;20060;-86
2023/11/25 05:39:26;;;;;;;;;;;;;;;;;;5073296;28;19964;-84
2023/11/25 05:41:52;;;;;;;;;;;;;;;;;;5068370;28;19939;-85
2023/11/25 05:44:20;;;;;;;;;;;;;;;;;;5073697;28;19951;-85
2023/11/25 05:46:46;;;;;;;;;;;;;;;;;;5078058;28;19912;-84
2023/11/25 05:49:12;;;;;;;;;;;;;;;;;;5089247;28;20270;-84
2023/11/25 05:51:45;;;;;;;;;;;;;;;;;;5089786;28;20420;-84
2023/11/25 05:54:12;;;;;;;;;;;;;;;;;;5071548;28;19935;-84
2023/11/25 05:56:39;;;;;;;;;;;;;;;;;;5084901;28;19981;-84
2023/11/25 05:59:07;;;;;;;;;;;;;;;;;;5080694;28;19995;-85
2023/11/25 06:01:33;;;;;;;;;;;;;;;;;;5078878;28;20359;-85
2023/11/25 06:03:59;;;;;;;;;;;;;;;;;;5071089;28;19951;-85
2023/11/25 06:06:25;;;;;;;;;;;;;;;;;;5090048;28;19954;-84
2023/11/25 06:08:51;;;;;;;;;;;;;;;;;;5081386;28;19912;-86
2023/11/25 06:11:18;;;;;;;;;;;;;;;;;;5081443;28;20039;-85
2023/11/25 06:13:44;;;;;;;;;;;;;;;;;;5091041;28;20383;-86
2023/11/25 06:16:10;;;;;;;;;;;;;;;;;;5082769;28;19912;-86
2023/11/25 06:18:36;;;;;;;;;;;;;;;;;;5060479;28;19991;-86
2023/11/25 06:21:02;;;;;;;;;;;;;;;;;;5079656;28;19954;-87
2023/11/25 06:23:28;;;;;;;;;;;;;;;;;;5075854;28;19966;-87
2023/11/25 06:25:54;;;;;;;;;;;;;;;;;;5071384;28;19912;-86
2023/11/25 06:28:23;;;;;;;;;;;;;;;;;;5082216;28;19918;-86
2023/11/25 06:30:53;;;;;;;;;;;;;;;;;;5087302;28;19915;-85
2023/11/25 06:33:19;;;;;;;;;;;;;;;;;;5087592;28;20030;-85
2023/11/25 06:35:45;;;;;;;;;;;;;;;;;;5078359;28;20747;-85
2023/11/25 06:38:11;;;;;;;;;;;;;;;;;;5080606;28;19951;-86
2023/11/25 06:40:38;;;;;;;;;;;;;;;;;;5086704;28;19916;-85
2023/11/25 06:43:04;;;;;;;;;;;;;;;;;;5089028;28;20340;-86
2023/11/25 06:45:30;;;;;;;;;;;;;;;;;;5077662;28;19979;-85
2023/11/25 06:47:56;;;;;;;;;;;;;;;;;;5078348;28;20314;-86
2023/11/25 06:50:22;;;;;;;;;;;;;;;;;;5089044;28;20270;-86
2023/11/25 06:52:48;;;;;;;;;;;;;;;;;;5081543;28;19985;-83
2023/11/25 06:55:14;;;;;;;;;;;;;;;;;;5080949;28;19908;-85
2023/11/25 06:57:40;;;;;;;;;;;;;;;;;;5086369;28;19976;-85
2023/11/25 07:00:08;;;;;;;;;;;;;;;;;;5078575;28;19917;-88
2023/11/25 07:02:34;;;;;;;;;;;;;;;;;;5087565;28;19956;-88
2023/11/25 07:05:00;;;;;;;;;;;;;;;;;;5064878;28;20422;-88
2023/11/25 07:07:26;;;;;;;;;;;;;;;;;;5079399;28;20387;-89
2023/11/25 07:09:53;;;;;;;;;;;;;;;;;;5083470;28;19950;-88
2023/11/25 07:12:19;;;;;;;;;;;;;;;;;;5083286;28;19961;-87
2023/11/25 07:14:45;;;;;;;;;;;;;;;;;;5082161;28;19908;-88
2023/11/25 07:17:12;;;;;;;;;;;;;;;;;;5080955;28;19920;-88
2023/11/25 07:19:38;;;;;;;;;;;;;;;;;;5072352;28;19907;-88
2023/11/25 07:22:04;;;;;;;;;;;;;;;;;;5085040;28;19912;-88
2023/11/25 07:24:31;;;;;;;;;;;;;;;;;;5074557;28;20007;-86
2023/11/25 07:27:01;;;;;;;;;;;;;;;;;;5085930;28;19955;-89
2023/11/25 07:29:30;;;;;;;;;;;;;;;;;;5067759;28;19912;-89
2023/11/25 07:31:56;;;;;;;;;;;;;;;;;;5081850;28;22188;-89
2023/11/25 07:34:22;;;;;;;;;;;;;;;;;;5082070;28;20006;-90
2023/11/25 07:36:48;;;;;;;;;;;;;;;;;;5089964;28;19916;-89
2023/11/25 07:39:19;;;;;;;;;;;;;;;;;;5089409;28;20315;-89
2023/11/25 07:41:45;;;;;;;;;;;;;;;;;;5090188;28;19932;-88
2023/11/25 07:44:11;;;;;;;;;;;;;;;;;;5087754;28;19912;-89
2023/11/25 07:46:37;;;;;;;;;;;;;;;;;;5083049;28;20176;-88
2023/11/25 07:49:03;;;;;;;;;;;;;;;;;;5061563;28;20006;-87
2023/11/25 07:51:29;;;;;;;;;;;;;;;;;;5083979;28;20300;-88
2023/11/25 07:53:56;;;;;;;;;;;;;;;;;;5076006;28;19951;-90
2023/11/25 07:56:22;;;;;;;;;;;;;;;;;;5072825;28;19911;-89
2023/11/25 07:58:48;;;;;;;;;;;;;;;;;;5086419;28;20326;-89
2023/11/25 08:01:14;;;;;;;;;;;;;;;;;;5085839;28;19916;-88
2023/11/25 08:03:40;;;;;;;;;;;;;;;;;;5086171;28;20009;-89
2023/11/25 08:06:05;;;;;;;;;;;;;;;;;;5084686;28;20364;-82
2023/11/25 08:08:32;;;;;;;;;;;;;;;;;;5083170;28;19908;-82
2023/11/25 08:10:58;;;;;;;;;;;;;;;;;;5082680;28;19911;-83
2023/11/25 08:13:24;;;;;;;;;;;;;;;;;;5088988;28;19951;-82
2023/11/25 08:15:50;;;;;;;;;;;;;;;;;;5086334;28;20335;-82
2023/11/25 08:18:18;;;;;;;;;;;;;;;;;;5085627;28;19955;-83
2023/11/25 08:20:44;;;;;;;;;;;;;;;;;;5090670;28;19908;-82
2023/11/25 08:23:10;;;;;;;;;;;;;;;;;;5086520;28;19951;-83
2023/11/25 08:25:36;;;;;;;;;;;;;;;;;;5090419;28;19989;-81
2023/11/25 08:28:02;;;;;;;;;;;;;;;;;;5087843;28;20129;-82
2023/11/25 08:30:28;;;;;;;;;;;;;;;;;;5088215;28;19916;-81
2023/11/25 08:32:54;;;;;;;;;;;;;;;;;;5089846;28;19955;-81
2023/11/25 08:35:20;;;;;;;;;;;;;;;;;;5066209;28;20260;-83
2023/11/25 08:37:47;;;;;;;;;;;;;;;;;;5087583;28;19965;-81
2023/11/25 08:40:16;;;;;;;;;;;;;;;;;;5089275;28;19915;-82
2023/11/25 08:42:42;;;;;;;;;;;;;;;;;;5087526;28;19943;-83
2023/11/25 08:45:08;;;;;;;;;;;;;;;;;;5084390;28;19965;-81
2023/11/25 08:47:35;;;;;;;;;;;;;;;;;;5082459;28;20382;-81
2023/11/25 08:50:01;;;;;;;;;;;;;;;;;;5082364;28;19965;-82
2023/11/25 08:52:27;;;;;;;;;;;;;;;;;;5082846;28;20312;-82
2023/11/25 08:54:53;;;;;;;;;;;;;;;;;;5085835;28;20232;-83
2023/11/25 08:57:20;;;;;;;;;;;;;;;;;;5086056;28;19947;-82
2023/11/25 08:59:46;;;;;;;;;;;;;;;;;;5086160;28;20375;-83
2023/11/25 09:02:14;;;;;;;;;;;;;;;;;;5085263;28;19946;-84
2023/11/25 09:04:42;;;;;;;;;;;;;;;;;;5083401;28;20263;-82
2023/11/25 09:07:11;;;;;;;;;;;;;;;;;;5080904;28;19912;-82
2023/11/25 09:09:37;;;;;;;;;;;;;;;;;;5080806;28;20363;-82
2023/11/25 09:12:03;;;;;;;;;;;;;;;;;;5082898;28;19912;-81
2023/11/25 09:14:29;;;;;;;;;;;;;;;;;;5087022;28;19932;-81
2023/11/25 09:16:55;;;;;;;;;;;;;;;;;;5085843;28;20011;-78
2023/11/25 09:19:23;;;;;;;;;;;;;;;;;;5086872;28;19916;-81
2023/11/25 09:21:49;;;;;;;;;;;;;;;;;;5082237;28;20371;-80
2023/11/25 09:24:15;;;;;;;;;;;;;;;;;;5083958;28;19908;-79
2023/11/25 09:26:41;;;;;;;;;;;;;;;;;;5087171;28;19959;-78
2023/11/25 09:29:07;;;;;;;;;;;;;;;;;;5085946;28;19956;-83
2023/11/25 09:31:33;;;;;;;;;;;;;;;;;;5086647;28;19984;-83
2023/11/25 09:34:02;;;;;;;;;;;;;;;;;;5082258;28;20240;-83
2023/11/25 09:36:29;;;;;;;;;;;;;;;;;;5081598;28;19958;-83
2023/11/25 09:38:55;;;;;;;;;;;;;;;;;;5084639;28;19951;-86
2023/11/25 09:41:21;;;;;;;;;;;;;;;;;;5064683;28;20004;-87
2023/11/25 09:43:47;;;;;;;;;;;;;;;;;;5086838;28;20041;-85
2023/11/25 09:46:13;;;;;;;;;;;;;;;;;;5084131;28;20058;-85
2023/11/25 09:48:40;;;;;;;;;;;;;;;;;;5077890;28;20320;-89
2023/11/25 09:51:07;;;;;;;;;;;;;;;;;;5083750;28;19912;-87
2023/11/25 09:53:33;;;;;;;;;;;;;;;;;;5078315;28;19985;-88
2023/11/25 09:55:59;;;;;;;;;;;;;;;;;;5080415;28;19916;-88
2023/11/25 09:58:25;;;;;;;;;;;;;;;;;;5089179;28;20037;-88
2023/11/25 10:00:51;;;;;;;;;;;;;;;;;;5081841;28;19940;-88
2023/11/25 10:03:19;;;;;;;;;;;;;;;;;;5083563;28;19974;-89
2023/11/25 10:05:45;;;;;;;;;;;;;;;;;;5088930;28;19908;-89
2023/11/25 10:08:11;;;;;;;;;;;;;;;;;;5082116;28;19915;-88
2023/11/25 10:10:37;;;;;;;;;;;;;;;;;;5086667;28;20387;-85
2023/11/25 10:13:04;;;;;;;;;;;;;;;;;;5095247;28;19946;-87
2023/11/25 10:15:31;;;;;;;;;;;;;;;;;;5080943;28;19912;-88
2023/11/25 10:17:57;;;;;;;;;;;;;;;;;;5084183;28;19927;-84
2023/11/25 10:20:23;;;;;;;;;;;;;;;;;;5084286;28;19966;-84
2023/11/25 10:22:49;;;;;;;;;;;;;;;;;;5087502;28;20041;-83
2023/11/25 10:25:15;;;;;;;;;;;;;;;;;;5087795;28;19947;-83
2023/11/25 10:27:41;;;;;;;;;;;;;;;;;;5082347;28;20363;-83
2023/11/25 10:30:08;;;;;;;;;;;;;;;;;;5089580;28;19919;-83
2023/11/25 10:32:34;;;;;;;;;;;;;;;;;;5078824;28;19916;-83
2023/11/25 10:35:00;;;;;;;;;;;;;;;;;;5074490;28;20363;-83
2023/11/25 10:37:26;;;;;;;;;;;;;;;;;;5076863;28;19954;-84
2023/11/25 10:39:52;;;;;;;;;;;;;;;;;;5084411;28;20002;-82
2023/11/25 10:42:19;;;;;;;;;;;;;;;;;;5086710;28;19962;-77
2023/11/25 10:44:45;;;;;;;;;;;;;;;;;;5079138;28;20340;-79
2023/11/25 10:47:11;;;;;;;;;;;;;;;;;;5064354;28;19967;-79
2023/11/25 10:49:37;;;;;;;;;;;;;;;;;;5076135;28;19959;-79
2023/11/25 10:52:06;;;;;;;;;;;;;;;;;;5085941;28;19938;-79
2023/11/25 10:54:33;;;;;;;;;;;;;;;;;;5088666;28;20201;-79
2023/11/25 10:57:03;;;;;;;;;;;;;;;;;;5083292;28;19958;-80
2023/11/25 10:59:29;;;;;;;;;;;;;;;;;;5085822;28;19912;-79
2023/11/25 11:01:55;;;;;;;;;;;;;;;;;;5075628;28;20415;-79
2023/11/25 11:04:21;;;;;;;;;;;;;;;;;;5084146;28;20094;-80
2023/11/25 11:06:48;;;;;;;;;;;;;;;;;;5078586;28;20027;-79
2023/11/25 11:09:19;;;;;;;;;;;;;;;;;;5058304;28;20023;-80
2023/11/25 11:11:46;;;;;;;;;;;;;;;;;;5069106;28;19995;-78
2023/11/25 11:14:12;;;;;;;;;;;;;;;;;;5088679;28;19911;-79
2023/11/25 11:16:38;;;;;;;;;;;;;;;;;;5080279;28;19986;-80
2023/11/25 11:19:04;;;;;;;;;;;;;;;;;;5070428;28;19912;-79
2023/11/25 11:21:30;;;;;;;;;;;;;;;;;;5077516;28;19915;-80
2023/11/25 11:23:56;;;;;;;;;;;;;;;;;;5087684;28;20363;-80
2023/11/25 11:26:23;;;;;;;;;;;;;;;;;;5083805;28;19967;-80
2023/11/25 11:28:49;;;;;;;;;;;;;;;;;;5069806;28;20259;-81
2023/11/25 11:31:15;;;;;;;;;;;;;;;;;;5082260;28;19912;-79
2023/11/25 11:33:41;;;;;;;;;;;;;;;;;;5087357;28;19986;-79
2023/11/25 11:36:07;;;;;;;;;;;;;;;;;;5078834;28;19967;-81
2023/11/25 11:38:33;;;;;;;;;;;;;;;;;;5080585;28;20000;-79
2023/11/25 11:40:59;;;;;;;;;;;;;;;;;;5075334;28;19943;-80
2023/11/25 11:43:25;;;;;;;;;;;;;;;;;;5076322;28;19908;-80
2023/11/25 11:45:51;;;;;;;;;;;;;;;;;;5087680;28;19939;-79
2023/11/25 11:48:17;;;;;;;;;;;;;;;;;;5087865;28;19974;-79
2023/11/25 11:50:43;;;;;;;;;;;;;;;;;;5081592;28;19948;-85
2023/11/25 11:53:14;;;;;;;;;;;;;;;;;;5081362;28;20304;-85
2023/11/25 11:55:40;;;;;;;;;;;;;;;;;;5087929;28;19912;-84
2023/11/25 11:58:08;;;;;;;;;;;;;;;;;;5079302;28;19914;-85
2023/11/25 12:00:33;;;;;;;;;;;;;;;;;;5074839;28;19913;-85
2023/11/25 12:02:59;;;;;;;;;;;;;;;;;;5073116;28;20482;-84
2023/11/25 12:05:25;;;;;;;;;;;;;;;;;;5078394;28;20391;-85
2023/11/25 12:07:51;;;;;;;;;;;;;;;;;;5088340;28;19970;-84
2023/11/25 12:10:19;;;;;;;;;;;;;;;;;;5072091;28;19919;-84
2023/11/25 12:12:45;;;;;;;;;;;;;;;;;;5070093;28;19920;-85
2023/11/25 12:15:11;;;;;;;;;;;;;;;;;;5079506;28;19976;-83
2023/11/25 12:17:38;;;;;;;;;;;;;;;;;;5082473;28;20039;-84
2023/11/25 12:20:04;;;;;;;;;;;;;;;;;;5087522;28;20294;-84
2023/11/25 12:22:30;;;;;;;;;;;;;;;;;;5086609;28;20462;-84
2023/11/25 12:24:56;;;;;;;;;;;;;;;;;;5060993;28;20012;-84
2023/11/25 12:27:23;;;;;;;;;;;;;;;;;;5074230;28;20010;-84
2023/11/25 12:29:49;;;;;;;;;;;;;;;;;;5069830;28;19995;-84
2023/11/25 12:32:15;;;;;;;;;;;;;;;;;;5068753;28;20530;-83
2023/11/25 12:34:41;;;;;;;;;;;;;;;;;;5084622;28;19963;-84
2023/11/25 12:37:07;;;;;;;;;;;;;;;;;;5081135;28;19962;-84
2023/11/25 12:39:33;;;;;;;;;;;;;;;;;;5062424;28;19927;-83
2023/11/25 12:42:00;;;;;;;;;;;;;;;;;;5086266;28;20055;-84
2023/11/25 12:44:27;;;;;;;;;;;;;;;;;;5087829;28;19994;-85
2023/11/25 12:46:52;;;;;;;;;;;;;;;;;;5082783;28;19962;-84
2023/11/25 12:49:19;;;;;;;;;;;;;;;;;;5080091;28;20362;-84
2023/11/25 12:51:45;;;;;;;;;;;;;;;;;;5084242;28;19996;-84
2023/11/25 12:54:11;;;;;;;;;;;;;;;;;;5088108;28;19924;-84
2023/11/25 12:56:37;;;;;;;;;;;;;;;;;;5075029;28;19912;-84
2023/11/25 12:59:03;;;;;;;;;;;;;;;;;;5076780;28;19910;-79
2023/11/25 13:01:30;;;;;;;;;;;;;;;;;;5086974;28;20348;-79
2023/11/25 13:03:56;;;;;;;;;;;;;;;;;;5076570;28;19915;-80
2023/11/25 13:06:22;;;;;;;;;;;;;;;;;;5077212;28;20314;-80
2023/11/25 13:08:48;;;;;;;;;;;;;;;;;;5078671;28;20319;-79
2023/11/25 13:11:17;;;;;;;;;;;;;;;;;;5087543;28;20050;-80
2023/11/25 13:13:44;;;;;;;;;;;;;;;;;;5077263;28;20003;-79
2023/11/25 13:16:10;;;;;;;;;;;;;;;;;;5081718;28;19962;-80
2023/11/25 13:18:36;;;;;;;;;;;;;;;;;;5079158;28;19908;-80
2023/11/25 13:21:04;;;;;;;;;;;;;;;;;;5082068;28;20620;-82
2023/11/25 13:23:30;;;;;;;;;;;;;;;;;;5079258;28;19974;-80
2023/11/25 13:25:57;;;;;;;;;;;;;;;;;;5073298;28;19915;-80
2023/11/25 13:28:24;;;;;;;;;;;;;;;;;;5087326;28;19912;-80
2023/11/25 13:30:50;;;;;;;;;;;;;;;;;;5080497;28;20343;-80
2023/11/25 13:33:17;;;;;;;;;;;;;;;;;;5085403;28;20065;-80
2023/11/25 13:35:43;;;;;;;;;;;;;;;;;;5082624;28;20018;-80
2023/11/25 13:38:09;;;;;;;;;;;;;;;;;;5079107;28;19904;-80
2023/11/25 13:40:35;;;;;;;;;;;;;;;;;;5081647;28;19951;-79
2023/11/25 13:43:01;;;;;;;;;;;;;;;;;;5084492;28;19909;-80
2023/11/25 13:45:27;;;;;;;;;;;;;;;;;;5081449;28;20023;-80
2023/11/25 13:47:53;;;;;;;;;;;;;;;;;;5085415;28;19923;-80
2023/11/25 13:50:20;;;;;;;;;;;;;;;;;;5083660;28;19904;-79
2023/11/25 13:52:46;;;;;;;;;;;;;;;;;;5086370;28;19918;-81
2023/11/25 13:55:15;;;;;;;;;;;;;;;;;;5086574;28;20420;-80
2023/11/25 13:57:41;;;;;;;;;;;;;;;;;;5088694;28;20284;-80
2023/11/25 14:00:08;;;;;;;;;;;;;;;;;;5087926;28;20010;-79
2023/11/25 14:02:35;;;;;;;;;;;;;;;;;;5088330;28;20010;-78
2023/11/25 14:05:01;;;;;;;;;;;;;;;;;;5069593;28;19981;-79
2023/11/25 14:07:27;;;;;;;;;;;;;;;;;;5065287;28;20379;-79
2023/11/25 14:09:53;;;;;;;;;;;;;;;;;;5082622;28;19979;-84
2023/11/25 14:12:19;;;;;;;;;;;;;;;;;;5081172;28;19963;-84
2023/11/25 14:14:45;;;;;;;;;;;;;;;;;;5066651;28;20317;-84
2023/11/25 14:17:16;;;;;;;;;;;;;;;;;;5064954;28;19955;-83
2023/11/25 14:19:45;;;;;;;;;;;;;;;;;;5082636;28;19918;-84
2023/11/25 14:22:10;;;;;;;;;;;;;;;;;;5080529;28;19911;-84
2023/11/25 14:24:36;;;;;;;;;;;;;;;;;;5085523;28;20410;-83
2023/11/25 14:27:03;;;;;;;;;;;;;;;;;;5083041;28;19951;-83
2023/11/25 14:29:29;;;;;;;;;;;;;;;;;;5085320;28;20008;-83
2023/11/25 14:31:55;;;;;;;;;;;;;;;;;;5081660;28;20461;-85
2023/11/25 14:34:21;;;;;;;;;;;;;;;;;;5085582;28;20504;-85
2023/11/25 14:36:47;;;;;;;;;;;;;;;;;;5082788;28;19970;-85
2023/11/25 14:39:18;;;;;;;;;;;;;;;;;;5088630;28;19947;-86
2023/11/25 14:41:44;;;;;;;;;;;;;;;;;;5085721;28;20037;-86
2023/11/25 14:44:10;;;;;;;;;;;;;;;;;;5078101;28;19912;-85
2023/11/25 14:46:36;;;;;;;;;;;;;;;;;;5063385;28;19916;-84
2023/11/25 14:49:04;;;;;;;;;;;;;;;;;;5084655;28;19988;-83
2023/11/25 14:51:30;;;;;;;;;;;;;;;;;;5090511;28;20255;-84
2023/11/25 14:53:56;;;;;;;;;;;;;;;;;;5071180;28;19968;-83
2023/11/25 14:56:22;;;;;;;;;;;;;;;;;;5067301;28;20008;-84
2023/11/25 14:58:48;;;;;;;;;;;;;;;;;;5103314;28;19895;-83
2023/11/25 15:01:14;;;;;;;;;;;;;;;;;;5097261;28;19908;-83
2023/11/25 15:03:43;;;;;;;;;;;;;;;;;;5090826;28;20342;-84
2023/11/25 15:06:09;;;;;;;;;;;;;;;;;;5089813;28;19915;-83
2023/11/25 15:08:35;;;;;;;;;;;;;;;;;;5090698;28;19954;-83
2023/11/25 15:11:02;;;;;;;;;;;;;;;;;;5089861;28;19963;-84
2023/11/25 15:13:28;;;;;;;;;;;;;;;;;;5070806;28;19924;-84
2023/11/25 15:15:53;;;;;;;;;;;;;;;;;;5089995;28;19911;-84
2023/11/25 15:18:19;;;;;;;;;;;;;;;;;;5089586;28;20320;-83
2023/11/25 15:20:45;;;;;;;;;;;;;;;;;;5089346;28;19991;-87
2023/11/25 15:23:12;;;;;;;;;;;;;;;;;;5090005;28;20348;-86
2023/11/25 15:25:39;;;;;;;;;;;;;;;;;;5070547;28;20007;-85
2023/11/25 15:28:06;;;;;;;;;;;;;;;;;;5089184;28;19919;-87
2023/11/25 15:30:32;;;;;;;;;;;;;;;;;;5085086;28;19912;-86
2023/11/25 15:32:59;;;;;;;;;;;;;;;;;;5089034;28;20351;-86
2023/11/25 15:35:25;;;;;;;;;;;;;;;;;;5071821;28;20343;-86
2023/11/25 15:37:51;;;;;;;;;;;;;;;;;;5081626;28;19955;-86
2023/11/25 15:40:17;;;;;;;;;;;;;;;;;;5072241;28;20366;-86
2023/11/25 15:42:43;;;;;;;;;;;;;;;;;;5088816;28;20390;-87
2023/11/25 15:45:09;;;;;;;;;;;;;;;;;;5090910;28;19956;-86
2023/11/25 15:47:35;;;;;;;;;;;;;;;;;;5090599;28;19912;-86
2023/11/25 15:50:01;;;;;;;;;;;;;;;;;;5090530;28;20011;-88
2023/11/25 15:52:27;;;;;;;;;;;;;;;;;;5089908;28;20104;-87
2023/11/25 15:54:53;;;;;;;;;;;;;;;;;;5089670;28;19984;-87
2023/11/25 15:57:19;;;;;;;;;;;;;;;;;;5090249;28;20275;-87
2023/11/25 15:59:46;;;;;;;;;;;;;;;;;;5089899;28;20335;-87
2023/11/25 16:02:12;;;;;;;;;;;;;;;;;;5089688;28;19920;-88
2023/11/25 16:04:39;;;;;;;;;;;;;;;;;;5090440;28;19983;-87
2023/11/25 16:07:10;;;;;;;;;;;;;;;;;;5088965;28;20334;-86
2023/11/25 16:09:36;;;;;;;;;;;;;;;;;;5090075;28;19908;-86
2023/11/25 16:12:02;;;;;;;;;;;;;;;;;;5071330;28;19941;-87
2023/11/25 16:14:28;;;;;;;;;;;;;;;;;;5089772;28;20015;-87
2023/11/25 16:16:54;;;;;;;;;;;;;;;;;;5089934;28;19936;-87
2023/11/25 16:19:21;;;;;;;;;;;;;;;;;;5088701;28;20360;-87
2023/11/25 16:21:47;;;;;;;;;;;;;;;;;;5087896;28;20600;-86
2023/11/25 16:24:13;;;;;;;;;;;;;;;;;;5089967;28;19954;-88
2023/11/25 16:26:40;;;;;;;;;;;;;;;;;;5089022;28;20040;-86
2023/11/25 16:29:06;;;;;;;;;;;;;;;;;;5086747;28;20025;-80
2023/11/25 16:31:32;;;;;;;;;;;;;;;;;;5089073;28;19994;-78
2023/11/25 16:33:58;;;;;;;;;;;;;;;;;;5091627;28;19920;-80
2023/11/25 16:36:25;;;;;;;;;;;;;;;;;;5092092;28;19908;-78
2023/11/25 16:38:51;;;;;;;;;;;;;;;;;;5093239;28;19904;-79